Hanover Township, Pennsylvania
Current Conditions -  °F | °C
As of 6:54 PM on Monday 20 Oct 2014 (Local Time) from KAVP Reporting Station
Overcast Overcast  
Wind Chill: 55°   Ceiling: 11000
Heat Index: 55°   Visibility: 10mi
Dew Point: 38°   Wind: 5mph
Humidity: 53%   Direction: NA
Pressure: 29.92"   Gusts: NA
Location:  41.1921°N, 75.9213°W
Report Text: KAVP 202254Z AUTO VRB04KT 10SM OVC110 13/03 A2992 RMK AO2 SLP135 T01280033
Loading
Personal Weather Stations






























Interactive Weather Map
Tropical Storm Tracking
New forecast layout! Learn more

10-Day Weather Forecast

Advertisements
Track Severe Weather on mobile